Time;durP1;ratioP1;P1;durP2;ratioP2;P2;SDS_P1;SDS_P2;PMS_P1;PMS_P2;Temp;Humidity;BMP_temperature;BMP_pressure;BME280_temperature;BME280_humidity;BME280_pressure;Samples;Min_cycle;Max_cycle;Signal;HPM_P1;HPM_P2
2022/10/04 00:01:09;;;;;;;0.90;0.90;;;8.20;99.90;;;;;;5095801;28;20211;-68
2022/10/04 00:03:42;;;;;;;1.07;0.97;;;8.30;99.90;;;;;;5095715;28;20585;-67
2022/10/04 00:06:17;;;;;;;1.00;1.00;;;8.30;99.90;;;;;;5095870;28;20188;-66
2022/10/04 00:08:50;;;;;;;1.03;1.00;;;8.30;99.90;;;;;;5095189;28;20279;-67
2022/10/04 00:11:22;;;;;;;0.90;0.90;;;8.30;99.90;;;;;;5093822;28;20216;-67
2022/10/04 00:13:52;;;;;;;0.90;0.90;;;8.30;99.90;;;;;;5095542;28;20188;-68
2022/10/04 00:16:23;;;;;;;1.00;1.00;;;8.30;99.90;;;;;;5095301;28;20190;-67
2022/10/04 00:19:01;;;;;;;1.00;1.00;;;8.30;99.90;;;;;;5095431;28;20550;-68
2022/10/04 00:22:19;;;;;;;1.10;1.10;;;8.30;99.90;;;;;;5094975;28;20185;-66
2022/10/04 00:25:22;;;;;;;1.97;1.10;;;8.30;99.90;;;;;;5087522;28;20212;-66
2022/10/04 00:28:16;;;;;;;1.30;1.00;;;8.30;99.90;;;;;;5094997;28;20190;-66
2022/10/04 00:30:43;;;;;;;1.03;1.03;;;8.30;99.90;;;;;;5095108;28;20188;-66
2022/10/04 00:33:10;;;;;;;1.10;1.10;;;8.30;99.90;;;;;;5095001;28;20208;-67
2022/10/04 00:35:49;;;;;;;1.17;1.13;;;8.40;99.90;;;;;;5094521;28;20745;-66
2022/10/04 00:38:24;;;;;;;1.20;1.10;;;8.30;99.90;;;;;;5093827;28;20652;-65
2022/10/04 00:40:58;;;;;;;1.60;1.30;;;8.30;99.90;;;;;;5093891;28;20196;-67
2022/10/04 00:43:29;;;;;;;1.30;1.20;;;8.30;99.90;;;;;;5094600;28;20297;-65
2022/10/04 00:46:00;;;;;;;2.17;1.20;;;8.30;99.90;;;;;;5094920;28;20188;-67
2022/10/04 00:48:35;;;;;;;1.20;1.20;;;8.30;99.90;;;;;;5094540;28;20196;-66
2022/10/04 00:51:09;;;;;;;1.80;1.20;;;8.30;99.90;;;;;;5094588;28;20187;-66
2022/10/04 00:53:51;;;;;;;1.40;1.30;;;8.30;99.90;;;;;;5094385;28;20203;-68
2022/10/04 00:56:24;;;;;;;1.50;1.30;;;8.30;99.90;;;;;;5093900;28;20211;-66
2022/10/04 00:59:23;;;;;;;1.93;1.30;;;8.30;99.90;;;;;;5091912;28;20196;-66
2022/10/04 01:01:56;;;;;;;1.43;1.23;;;8.30;99.90;;;;;;5087847;28;20215;-68
2022/10/04 01:04:36;;;;;;;1.47;1.33;;;8.30;99.90;;;;;;5094270;28;20244;-67
2022/10/04 01:07:05;;;;;;;1.33;1.23;;;8.30;99.90;;;;;;5094743;28;20204;-70
2022/10/04 01:09:36;;;;;;;1.63;1.40;;;8.30;99.90;;;;;;5094103;28;20242;-68
2022/10/04 01:12:08;;;;;;;3.40;1.30;;;8.30;99.90;;;;;;5094454;28;20210;-67
2022/10/04 01:14:44;;;;;;;1.53;1.30;;;8.30;99.90;;;;;;5093066;28;20216;-66
2022/10/04 01:17:10;;;;;;;1.30;1.20;;;8.40;99.90;;;;;;5094176;28;20625;-66
2022/10/04 01:19:40;;;;;;;2.13;1.30;;;8.30;99.90;;;;;;5094339;28;20228;-66
2022/10/04 01:22:14;;;;;;;1.30;1.20;;;8.40;99.90;;;;;;5093967;28;20303;-66
2022/10/04 01:24:43;;;;;;;1.87;1.10;;;8.40;99.90;;;;;;5094095;28;20529;-66
2022/10/04 01:27:34;;;;;;;1.47;1.20;;;8.40;99.90;;;;;;5093410;28;20204;-66
2022/10/04 01:30:03;;;;;;;2.80;1.30;;;8.40;99.90;;;;;;5092861;28;20204;-67
2022/10/04 01:32:31;;;;;;;1.27;1.23;;;8.40;99.90;;;;;;5093172;28;20220;-67
2022/10/04 01:34:58;;;;;;;1.40;1.30;;;8.40;99.90;;;;;;5093576;28;20228;-67
2022/10/04 01:37:25;;;;;;;1.60;1.50;;;8.40;99.90;;;;;;5093502;28;20697;-66
2022/10/04 01:39:54;;;;;;;1.13;1.10;;;8.50;99.90;;;;;;5093768;28;20691;-68
2022/10/04 01:42:27;;;;;;;1.90;1.30;;;8.50;99.90;;;;;;5093375;28;20238;-67
2022/10/04 01:44:57;;;;;;;3.47;1.30;;;8.50;99.90;;;;;;5090739;28;20213;-66
2022/10/04 01:47:29;;;;;;;1.30;1.20;;;8.50;99.90;;;;;;5093553;28;20195;-66
2022/10/04 01:49:58;;;;;;;1.40;1.30;;;8.50;99.90;;;;;;5092183;28;20188;-66
2022/10/04 01:52:32;;;;;;;1.37;1.30;;;8.50;99.90;;;;;;5093210;28;20238;-66
2022/10/04 01:55:04;;;;;;;1.30;1.20;;;8.50;99.90;;;;;;5093633;28;20212;-66
2022/10/04 01:57:35;;;;;;;2.30;1.20;;;8.50;99.90;;;;;;5091338;28;20200;-66
2022/10/04 02:00:05;;;;;;;1.47;1.37;;;8.50;99.90;;;;;;5090836;28;20207;-67
2022/10/04 02:02:39;;;;;;;1.67;1.30;;;8.60;99.90;;;;;;5092346;28;20311;-66
2022/10/04 02:05:11;;;;;;;1.40;1.30;;;8.50;99.90;;;;;;5093213;28;20188;-66
2022/10/04 02:07:40;;;;;;;1.40;1.30;;;8.60;99.90;;;;;;5093118;28;20668;-66
2022/10/04 02:10:11;;;;;;;2.90;1.40;;;8.60;99.90;;;;;;5092528;28;20754;-67
2022/10/04 02:12:46;;;;;;;1.87;1.27;;;8.60;99.90;;;;;;5093307;28;20549;-66
2022/10/04 02:15:13;;;;;;;2.33;1.53;;;8.60;99.90;;;;;;5091475;28;20212;-67
2022/10/04 02:17:43;;;;;;;1.40;1.30;;;8.70;99.90;;;;;;5093034;28;20574;-66
2022/10/04 02:20:15;;;;;;;1.50;1.40;;;8.60;99.90;;;;;;5092701;28;20201;-67
2022/10/04 02:22:43;;;;;;;1.50;1.40;;;8.60;99.90;;;;;;5092979;28;20188;-67
2022/10/04 02:25:14;;;;;;;2.70;1.40;;;8.60;99.90;;;;;;5093029;28;20204;-66
2022/10/04 02:27:40;;;;;;;3.97;1.57;;;8.60;99.90;;;;;;5092560;28;20218;-66
2022/10/04 02:30:11;;;;;;;1.70;1.43;;;8.70;99.90;;;;;;5091406;28;20203;-67
2022/10/04 02:32:58;;;;;;;1.40;1.30;;;8.60;99.90;;;;;;5092911;28;20584;-66
2022/10/04 02:35:28;;;;;;;1.50;1.40;;;8.70;99.90;;;;;;5092667;28;20618;-66
2022/10/04 02:38:02;;;;;;;1.70;1.40;;;8.60;99.90;;;;;;5092578;28;20211;-66
2022/10/04 02:40:33;;;;;;;3.23;1.93;;;8.70;99.90;;;;;;5092388;28;20188;-66
2022/10/04 02:43:03;;;;;;;1.50;1.40;;;8.70;99.90;;;;;;5092190;28;20196;-67
2022/10/04 02:45:40;;;;;;;2.00;1.70;;;8.70;99.90;;;;;;5091711;28;20199;-66
2022/10/04 02:48:18;;;;;;;1.93;1.70;;;8.60;99.90;;;;;;5092255;28;20711;-66
2022/10/04 02:50:48;;;;;;;3.57;2.97;;;8.60;99.90;;;;;;5092433;28;20661;-67
2022/10/04 02:53:22;;;;;;;2.50;1.50;;;8.60;99.90;;;;;;5091327;28;20200;-67
2022/10/04 02:55:50;;;;;;;2.57;1.30;;;8.50;99.90;;;;;;5092329;28;20208;-65
2022/10/04 02:58:20;;;;;;;2.33;1.33;;;8.50;99.90;;;;;;5092006;28;20207;-67
2022/10/04 03:00:49;;;;;;;1.30;1.20;;;8.50;99.90;;;;;;5091535;28;20200;-66
2022/10/04 03:03:22;;;;;;;1.40;1.30;;;8.50;99.90;;;;;;5091850;28;20736;-67
2022/10/04 03:06:00;;;;;;;1.30;1.20;;;8.50;99.90;;;;;;5089939;28;20200;-66
2022/10/04 03:08:30;;;;;;;2.03;1.23;;;8.50;99.90;;;;;;5091881;28;20245;-66
2022/10/04 03:11:02;;;;;;;2.30;1.30;;;8.50;99.90;;;;;;5091639;28;20294;-66
2022/10/04 03:13:30;;;;;;;1.20;1.20;;;8.50;99.90;;;;;;5092338;28;20193;-67
2022/10/04 03:15:57;;;;;;;1.93;1.20;;;8.50;99.90;;;;;;5091796;28;20582;-67
2022/10/04 03:18:24;;;;;;;1.20;1.10;;;8.50;99.90;;;;;;5091977;28;20681;-67
2022/10/04 03:20:51;;;;;;;1.23;1.13;;;8.50;99.90;;;;;;5090287;28;20680;-67
2022/10/04 03:23:19;;;;;;;1.03;1.00;;;8.50;99.90;;;;;;5092116;28;20199;-66
2022/10/04 03:25:51;;;;;;;1.57;1.07;;;8.50;99.90;;;;;;5091840;28;20203;-68
2022/10/04 03:28:20;;;;;;;1.10;1.10;;;8.50;99.90;;;;;;5092010;28;20218;-66
2022/10/04 03:30:48;;;;;;;2.40;1.00;;;8.50;99.90;;;;;;5091921;28;20199;-67
2022/10/04 03:33:19;;;;;;;1.30;1.20;;;8.50;99.90;;;;;;5091580;28;20224;-66
2022/10/04 03:35:49;;;;;;;1.07;1.00;;;8.40;99.90;;;;;;5090858;28;20575;-66
2022/10/04 03:38:17;;;;;;;1.10;1.10;;;8.40;99.90;;;;;;5091589;28;20192;-68
2022/10/04 03:40:51;;;;;;;1.37;1.20;;;8.40;99.90;;;;;;5091412;28;20353;-67
2022/10/04 03:43:23;;;;;;;1.00;1.00;;;8.40;99.90;;;;;;5091874;28;20765;-67
2022/10/04 03:45:51;;;;;;;1.10;1.00;;;8.40;99.90;;;;;;5091737;28;20184;-67
2022/10/04 03:48:27;;;;;;;1.53;1.30;;;8.40;99.90;;;;;;5089529;28;20830;-67
2022/10/04 03:50:54;;;;;;;1.57;1.00;;;8.40;99.90;;;;;;5091201;28;20231;-65
2022/10/04 03:53:29;;;;;;;3.93;1.17;;;8.40;99.90;;;;;;5091940;28;20640;-70
2022/10/04 03:55:58;;;;;;;0.80;0.80;;;8.40;99.90;;;;;;5091292;28;20211;-67
2022/10/04 03:58:29;;;;;;;1.20;1.00;;;8.40;99.90;;;;;;5091293;28;20204;-66
2022/10/04 04:01:12;;;;;;;1.27;1.17;;;8.40;99.90;;;;;;5090073;28;20220;-67
2022/10/04 04:03:50;;;;;;;1.50;1.20;;;8.30;99.90;;;;;;5071488;28;20296;-67
2022/10/04 04:06:19;;;;;;;1.20;1.10;;;8.30;99.90;;;;;;5071332;28;20192;-65
2022/10/04 04:08:49;;;;;;;3.47;1.10;;;8.30;99.90;;;;;;5071246;28;20260;-67
2022/10/04 04:11:21;;;;;;;3.17;1.20;;;8.40;99.90;;;;;;5087162;28;20215;-68
2022/10/04 04:13:58;;;;;;;1.00;1.00;;;8.40;99.90;;;;;;5095166;28;20198;-69
2022/10/04 04:16:25;;;;;;;1.20;1.10;;;8.40;99.90;;;;;;5095219;28;20211;-66
2022/10/04 04:18:55;;;;;;;1.20;1.10;;;8.40;99.90;;;;;;5094006;28;20627;-67
2022/10/04 04:21:23;;;;;;;1.20;1.10;;;8.30;99.90;;;;;;5093980;28;20299;-67
2022/10/04 04:23:53;;;;;;;1.00;1.00;;;8.30;99.90;;;;;;5093904;28;20216;-65
2022/10/04 04:26:26;;;;;;;1.30;1.20;;;8.30;99.90;;;;;;5094663;28;20196;-66
2022/10/04 04:28:57;;;;;;;1.40;1.30;;;8.30;99.90;;;;;;5094332;28;20192;-66
2022/10/04 04:31:28;;;;;;;1.83;1.50;;;8.30;99.90;;;;;;5093136;28;20201;-65
2022/10/04 04:33:58;;;;;;;1.40;1.30;;;8.40;99.90;;;;;;5094636;28;20219;-66
2022/10/04 04:36:25;;;;;;;1.63;1.20;;;8.40;99.90;;;;;;5094636;28;20621;-66
2022/10/04 04:41:41;;;;;;;4.83;1.47;;;8.40;99.90;;;;;;5077349;28;20246;-68
2022/10/04 04:44:18;;;;;;;1.30;1.20;;;8.40;99.90;;;;;;5094552;28;20680;-65
2022/10/04 04:46:45;;;;;;;1.50;1.40;;;8.30;99.90;;;;;;5094276;28;20275;-66
2022/10/04 04:49:14;;;;;;;3.03;1.30;;;8.40;99.90;;;;;;5094514;28;20200;-67
2022/10/04 04:51:45;;;;;;;1.43;1.20;;;8.40;99.90;;;;;;5091929;28;20211;-65
2022/10/04 04:54:12;;;;;;;1.30;1.20;;;8.40;99.90;;;;;;5094630;28;20621;-65
2022/10/04 04:56:41;;;;;;;1.20;1.10;;;8.40;99.90;;;;;;5094055;28;20262;-65
2022/10/04 04:59:08;;;;;;;1.50;1.40;;;8.40;99.90;;;;;;5093928;28;20214;-65
2022/10/04 05:01:42;;;;;;;2.60;1.83;;;8.40;99.90;;;;;;5090284;28;20204;-66
2022/10/04 05:04:18;;;;;;;2.40;2.10;;;8.40;99.90;;;;;;5094268;28;20549;-66
2022/10/04 05:06:46;;;;;;;3.07;1.67;;;8.50;99.90;;;;;;5094036;28;20544;-67
2022/10/04 05:09:23;;;;;;;1.83;1.33;;;8.50;99.90;;;;;;5081475;28;20775;-66
2022/10/04 05:11:52;;;;;;;2.67;1.60;;;8.50;99.90;;;;;;5081513;28;20191;-66
2022/10/04 05:14:20;;;;;;;3.90;2.00;;;8.50;99.90;;;;;;5083097;28;20197;-66
2022/10/04 05:16:51;;;;;;;1.93;1.57;;;8.60;99.90;;;;;;5081633;28;20225;-68
2022/10/04 05:19:23;;;;;;;2.10;1.60;;;8.50;99.90;;;;;;5084139;28;20216;-66
2022/10/04 05:21:52;;;;;;;2.00;1.50;;;8.60;99.90;;;;;;5081480;28;20193;-66
2022/10/04 05:24:25;;;;;;;3.83;2.10;;;8.70;99.90;;;;;;5077435;28;20201;-66
2022/10/04 05:26:54;;;;;;;2.90;2.23;;;8.70;99.90;;;;;;5075973;28;20200;-65
2022/10/04 05:29:24;;;;;;;1.87;1.50;;;8.70;99.90;;;;;;5094053;28;20557;-66
2022/10/04 05:32:03;;;;;;;2.70;1.80;;;8.70;99.90;;;;;;5093878;28;20257;-66
2022/10/04 05:34:32;;;;;;;2.13;1.80;;;8.70;99.90;;;;;;5091855;28;20196;-65
2022/10/04 05:37:28;;;;;;;1.77;1.60;;;8.70;99.90;;;;;;5086888;28;20248;-67
2022/10/04 05:40:06;;;;;;;1.63;1.53;;;8.80;99.90;;;;;;5093783;28;20249;-66
2022/10/04 05:42:39;;;;;;;4.53;1.50;;;8.80;99.90;;;;;;5093790;28;20192;-67
2022/10/04 05:45:16;;;;;;;1.77;1.40;;;8.80;99.90;;;;;;5093824;28;20198;-67
2022/10/04 05:47:46;;;;;;;2.43;1.70;;;8.90;99.90;;;;;;5092711;28;20199;-67
2022/10/04 05:50:17;;;;;;;1.90;1.60;;;9.00;99.90;;;;;;5092728;28;20567;-66
2022/10/04 05:52:46;;;;;;;2.10;1.70;;;9.00;99.90;;;;;;5093324;28;20195;-67
2022/10/04 05:55:22;;;;;;;2.83;1.67;;;9.00;99.90;;;;;;5093707;28;20200;-68
2022/10/04 05:58:06;;;;;;;2.53;1.50;;;9.10;99.90;;;;;;5093686;28;20208;-66
2022/10/04 06:00:39;;;;;;;2.43;1.90;;;9.10;99.90;;;;;;5090344;28;20582;-68
2022/10/04 06:03:45;;;;;;;3.33;1.67;;;9.10;99.90;;;;;;5093474;28;20188;-67
2022/10/04 06:06:19;;;;;;;3.77;1.70;;;9.20;99.90;;;;;;5093064;28;20656;-66
2022/10/04 06:08:56;;;;;;;2.63;1.83;;;9.20;99.90;;;;;;5092921;28;20243;-66
2022/10/04 06:11:39;;;;;;;2.90;1.93;;;9.30;99.90;;;;;;5092627;28;20199;-69
2022/10/04 06:14:47;;;;;;;2.40;1.97;;;9.30;99.90;;;;;;5093708;28;20270;-67
2022/10/04 06:17:51;;;;;;;3.90;2.10;;;9.30;99.90;;;;;;5055966;28;20228;-67
2022/10/04 06:20:43;;;;;;;2.17;1.90;;;9.40;99.90;;;;;;5092206;28;20200;-68
2022/10/04 06:23:16;;;;;;;2.60;1.80;;;9.40;99.90;;;;;;5093981;28;20193;-67
2022/10/04 06:25:47;;;;;;;4.83;2.20;;;9.40;99.90;;;;;;5093132;28;20237;-67
2022/10/04 06:28:20;;;;;;;4.10;2.03;;;9.50;99.90;;;;;;5091565;28;20200;-68
2022/10/04 06:31:13;;;;;;;2.47;1.70;;;9.50;99.90;;;;;;5092907;28;20196;-67
2022/10/04 06:33:56;;;;;;;2.70;1.87;;;9.60;99.90;;;;;;5092850;28;20199;-66
2022/10/04 06:36:37;;;;;;;3.70;1.80;;;9.60;99.90;;;;;;5092422;28;20549;-68
2022/10/04 06:39:26;;;;;;;3.17;1.70;;;9.70;99.90;;;;;;5091903;28;20203;-68
2022/10/04 06:42:32;;;;;;;2.87;2.10;;;9.70;99.90;;;;;;5082393;28;20212;-66
2022/10/04 06:45:20;;;;;;;2.17;1.63;;;9.70;99.90;;;;;;5092614;28;20323;-66
2022/10/04 06:48:06;;;;;;;3.77;1.90;;;9.80;99.90;;;;;;5091213;28;20648;-67
2022/10/04 06:50:41;;;;;;;3.10;1.90;;;9.80;99.90;;;;;;5082026;28;20198;-68
2022/10/04 06:53:19;;;;;;;1.93;1.70;;;9.80;99.90;;;;;;5092330;28;20192;-67
2022/10/04 06:56:04;;;;;;;2.10;1.73;;;9.90;99.90;;;;;;5092269;28;20608;-67
2022/10/04 06:58:54;;;;;;;2.20;2.00;;;9.90;99.90;;;;;;5089948;28;20196;-67
2022/10/04 07:01:28;;;;;;;2.43;1.90;;;9.90;99.90;;;;;;5092461;28;20633;-67
2022/10/04 07:04:02;;;;;;;3.03;2.00;;;9.90;99.90;;;;;;5092326;28;20188;-66
2022/10/04 07:06:34;;;;;;;4.60;2.20;;;9.90;99.90;;;;;;5091771;28;20238;-66
2022/10/04 07:09:06;;;;;;;4.63;2.10;;;9.90;99.90;;;;;;5090990;28;20239;-67
2022/10/04 07:11:42;;;;;;;3.63;2.07;;;9.90;99.90;;;;;;5091955;28;20228;-67
2022/10/04 07:14:13;;;;;;;3.40;2.07;;;9.90;99.90;;;;;;5092150;28;20195;-66
2022/10/04 07:16:46;;;;;;;2.57;2.10;;;9.90;99.90;;;;;;5091904;28;20211;-67
2022/10/04 07:19:27;;;;;;;2.90;2.17;;;10.00;99.90;;;;;;5091069;28;20200;-68
2022/10/04 07:22:02;;;;;;;2.20;2.00;;;10.00;99.90;;;;;;5092143;28;20241;-67
2022/10/04 07:24:39;;;;;;;10.70;6.77;;;10.00;99.90;;;;;;5091402;28;20218;-67
2022/10/04 07:27:13;;;;;;;2.50;2.30;;;10.00;99.90;;;;;;5092376;28;20216;-66
2022/10/04 07:29:44;;;;;;;3.03;2.23;;;10.00;99.90;;;;;;5091131;28;20560;-66
2022/10/04 07:32:20;;;;;;;3.07;1.97;;;10.10;99.90;;;;;;5092188;28;20184;-67
2022/10/04 07:34:53;;;;;;;3.87;2.10;;;10.10;99.90;;;;;;5092293;28;20191;-68
2022/10/04 07:37:22;;;;;;;3.17;2.20;;;10.10;99.90;;;;;;5091901;28;20212;-67
2022/10/04 07:39:57;;;;;;;3.80;2.10;;;10.10;99.90;;;;;;5091093;28;20207;-67
2022/10/04 07:42:31;;;;;;;3.83;2.17;;;10.10;99.90;;;;;;5089727;28;20202;-67
2022/10/04 07:45:05;;;;;;;2.87;2.00;;;10.10;99.90;;;;;;5092290;28;20211;-67
2022/10/04 07:47:32;;;;;;;2.63;2.10;;;10.10;99.90;;;;;;5095448;28;20184;-67
2022/10/04 07:50:00;;;;;;;3.37;2.20;;;10.20;99.90;;;;;;5095856;28;20239;-66
2022/10/04 07:52:49;;;;;;;3.07;2.13;;;10.20;99.90;;;;;;5093928;28;20206;-68
2022/10/04 07:55:28;;;;;;;3.07;2.37;;;10.20;99.90;;;;;;5096026;28;20271;-68
2022/10/04 07:58:22;;;;;;;4.63;2.30;;;10.20;99.90;;;;;;5095722;28;20737;-67
2022/10/04 08:00:55;;;;;;;3.07;2.43;;;10.20;99.90;;;;;;5093078;28;20204;-67
2022/10/04 08:03:40;;;;;;;5.83;2.43;;;10.20;99.90;;;;;;5094244;28;20697;-67
2022/10/04 08:06:12;;;;;;;4.07;2.23;;;10.20;99.90;;;;;;5095743;28;20199;-66
2022/10/04 08:09:16;;;;;;;3.83;2.33;;;10.20;99.90;;;;;;5095322;28;20264;-67
2022/10/04 08:11:52;;;;;;;2.67;2.03;;;10.20;99.90;;;;;;5087910;28;20200;-66
2022/10/04 08:14:31;;;;;;;3.60;2.20;;;10.30;99.90;;;;;;5092701;28;20200;-66
2022/10/04 08:17:17;;;;;;;3.17;2.50;;;10.30;99.90;;;;;;5093655;28;20219;-67
2022/10/04 08:19:53;;;;;;;4.00;2.20;;;10.30;99.90;;;;;;5095307;28;20227;-66
2022/10/04 08:22:33;;;;;;;6.37;3.30;;;10.40;99.90;;;;;;5094276;28;20199;-67
2022/10/04 08:25:12;;;;;;;3.27;2.40;;;10.40;99.90;;;;;;5095675;28;20188;-69
2022/10/04 08:31:05;;;;;;;4.07;2.20;;;10.60;99.90;;;;;;5093253;28;20203;-67
2022/10/04 08:33:57;;;;;;;4.47;2.07;;;10.60;99.90;;;;;;5094683;28;20188;-67
2022/10/04 08:36:40;;;;;;;4.27;2.43;;;10.60;99.90;;;;;;5094804;28;20204;-69
2022/10/04 08:39:18;;;;;;;3.30;2.40;;;10.60;99.90;;;;;;5094115;28;20196;-67
2022/10/04 08:42:05;;;;;;;4.73;2.90;;;10.70;99.90;;;;;;5095033;28;20541;-67
2022/10/04 08:45:19;;;;;;;5.70;2.30;;;10.70;99.90;;;;;;5095179;28;20228;-67
2022/10/04 08:48:29;;;;;;;4.77;2.40;;;10.70;99.90;;;;;;5094497;28;20240;-68
2022/10/04 08:51:24;;;;;;;5.40;2.90;;;10.70;99.90;;;;;;5087154;28;20207;-67
2022/10/04 08:54:21;;;;;;;3.97;2.87;;;10.80;99.90;;;;;;5074624;28;20630;-68
2022/10/04 08:57:04;;;;;;;6.47;2.73;;;10.80;99.90;;;;;;5086588;28;20265;-67
2022/10/04 09:00:09;;;;;;;5.00;2.80;;;10.80;99.90;;;;;;5093704;28;20192;-68
2022/10/04 09:03:19;;;;;;;3.73;2.93;;;10.80;99.90;;;;;;5094395;28;20283;-68
2022/10/04 09:05:57;;;;;;;5.67;2.70;;;10.80;99.90;;;;;;5094097;28;20200;-67
2022/10/04 09:08:56;;;;;;;3.53;2.50;;;10.80;99.90;;;;;;5091197;28;20197;-66
2022/10/04 09:11:42;;;;;;;4.13;2.80;;;10.70;99.90;;;;;;5094310;28;20527;-67
2022/10/04 09:14:30;;;;;;;5.13;2.87;;;10.70;99.90;;;;;;5094266;28;20222;-67
2022/10/04 09:17:15;;;;;;;4.20;2.67;;;10.70;99.90;;;;;;5090976;28;20203;-67
2022/10/04 09:19:53;;;;;;;4.37;2.70;;;10.70;99.90;;;;;;5094079;28;20712;-67
2022/10/04 09:22:42;;;;;;;6.60;2.97;;;10.70;99.90;;;;;;5093559;28;20193;-66
2022/10/04 09:25:23;;;;;;;6.07;3.00;;;10.80;99.90;;;;;;5094022;28;20551;-66
2022/10/04 09:28:34;;;;;;;7.70;3.00;;;10.80;99.90;;;;;;5089910;28;20194;-67
2022/10/04 09:31:29;;;;;;;5.93;2.77;;;10.80;99.90;;;;;;5082713;28;20211;-67
2022/10/04 09:34:10;;;;;;;5.17;2.60;;;10.90;99.90;;;;;;5091498;28;20295;-67
2022/10/04 09:36:54;;;;;;;4.40;3.20;;;10.90;99.90;;;;;;5084826;28;20214;-69
2022/10/04 09:40:00;;;;;;;3.97;3.07;;;10.90;99.90;;;;;;5093619;28;20220;-67
2022/10/04 09:42:56;;;;;;;5.07;3.20;;;10.90;99.90;;;;;;5073743;28;20208;-67
2022/10/04 09:45:36;;;;;;;5.37;3.10;;;10.90;99.90;;;;;;5058826;28;20219;-68
2022/10/04 09:48:25;;;;;;;4.63;3.07;;;10.90;99.90;;;;;;5087239;28;20200;-67
2022/10/04 09:51:25;;;;;;;6.20;3.20;;;10.90;99.90;;;;;;5093069;28;20196;-67
2022/10/04 09:54:09;;;;;;;4.97;3.20;;;11.00;99.90;;;;;;5076467;28;20234;-67
2022/10/04 09:56:58;;;;;;;6.37;3.60;;;11.00;99.90;;;;;;5093805;28;20539;-67
2022/10/04 10:00:04;;;;;;;5.50;3.47;;;11.00;99.90;;;;;;5092253;28;20236;-68
2022/10/04 10:03:04;;;;;;;10.10;4.50;;;11.00;99.90;;;;;;5093656;28;20692;-67
2022/10/04 10:05:48;;;;;;;4.80;2.90;;;11.10;99.90;;;;;;5088037;28;20214;-66
2022/10/04 10:08:22;;;;;;;8.23;3.17;;;11.00;99.90;;;;;;5093484;28;20195;-67
2022/10/04 10:14:22;;;;;;;5.47;3.20;;;11.00;99.90;;;;;;5091246;28;20277;-68
2022/10/04 10:16:58;;;;;;;3.47;2.70;;;11.00;99.90;;;;;;5070223;28;20196;-67
2022/10/04 10:19:57;;;;;;;4.77;2.70;;;11.00;99.90;;;;;;5082617;28;20280;-68
2022/10/04 10:22:41;;;;;;;3.60;2.87;;;10.90;99.90;;;;;;5092012;28;20208;-69
2022/10/04 10:25:27;;;;;;;4.30;2.80;;;11.00;99.90;;;;;;5090628;28;20287;-67
2022/10/04 10:28:17;;;;;;;6.17;3.23;;;10.90;99.90;;;;;;5091574;28;20660;-67
2022/10/04 10:31:07;;;;;;;5.37;3.07;;;10.90;99.90;;;;;;5093085;28;20632;-67
2022/10/04 10:34:03;;;;;;;4.30;3.07;;;10.90;99.90;;;;;;5091089;28;20270;-68
2022/10/04 10:36:59;;;;;;;4.00;3.00;;;10.90;99.90;;;;;;5086384;28;20681;-67
2022/10/04 10:39:55;;;;;;;7.10;3.03;;;10.90;99.90;;;;;;5092684;28;20610;-66
2022/10/04 10:43:14;;;;;;;4.17;3.20;;;10.80;99.90;;;;;;5092287;28;20208;-67
2022/10/04 10:46:02;;;;;;;5.37;3.13;;;10.90;99.90;;;;;;5089409;28;20214;-68
2022/10/04 10:48:52;;;;;;;5.57;3.40;;;10.90;99.90;;;;;;5092506;28;20219;-69
2022/10/04 10:51:54;;;;;;;6.70;3.20;;;10.90;99.90;;;;;;5058522;28;20603;-68
2022/10/04 10:54:46;;;;;;;5.77;4.40;;;11.00;99.90;;;;;;5085486;28;20206;-66
2022/10/04 10:57:32;;;;;;;6.37;3.47;;;11.00;99.90;;;;;;5083086;28;20196;-67
2022/10/04 11:00:18;;;;;;;5.23;3.40;;;11.00;99.90;;;;;;5088213;28;20200;-68
2022/10/04 11:03:22;;;;;;;4.73;3.57;;;11.00;99.90;;;;;;5086592;28;20203;-68
2022/10/04 11:06:12;;;;;;;6.37;3.70;;;11.10;99.90;;;;;;5034240;28;20212;-68
2022/10/04 11:09:18;;;;;;;5.53;3.50;;;11.20;99.90;;;;;;5071968;28;20224;-70
2022/10/04 11:12:05;;;;;;;5.97;3.70;;;11.20;99.90;;;;;;5072732;28;20222;-70
2022/10/04 11:14:55;;;;;;;4.37;3.40;;;11.20;99.90;;;;;;5092422;28;20188;-67
2022/10/04 11:18:03;;;;;;;12.13;4.90;;;11.30;99.90;;;;;;5063899;28;20212;-68
2022/10/04 11:21:02;;;;;;;9.60;3.90;;;11.30;99.90;;;;;;5022873;28;20208;-68
2022/10/04 11:24:05;;;;;;;4.67;3.03;;;11.30;99.90;;;;;;5034845;28;20580;-67
2022/10/04 11:26:57;;;;;;;5.17;3.30;;;11.30;99.90;;;;;;5061853;28;20226;-69
2022/10/04 11:29:54;;;;;;;4.37;3.47;;;11.30;99.90;;;;;;5081253;28;20204;-68
2022/10/04 11:33:03;;;;;;;6.20;3.60;;;11.40;99.90;;;;;;5092599;28;20558;-68
2022/10/04 11:36:06;;;;;;;10.00;3.60;;;11.40;99.90;;;;;;5092395;28;20268;-68
2022/10/04 11:39:02;;;;;;;6.90;3.30;;;11.40;99.90;;;;;;5091617;28;20315;-68
2022/10/04 11:41:49;;;;;;;5.57;3.00;;;11.50;99.90;;;;;;5089646;28;20207;-67
2022/10/04 11:44:51;;;;;;;4.10;3.13;;;11.50;99.90;;;;;;5092237;28;20188;-69
2022/10/04 11:47:42;;;;;;;10.70;3.80;;;11.50;99.90;;;;;;5087635;28;20273;-68
2022/10/04 11:50:23;;;;;;;4.23;3.17;;;11.50;99.90;;;;;;5092403;28;20195;-68
2022/10/04 11:53:20;;;;;;;5.37;3.00;;;11.50;99.90;;;;;;5092218;28;20192;-69
2022/10/04 11:56:03;;;;;;;4.80;3.43;;;11.50;99.90;;;;;;5090543;28;20249;-68
2022/10/04 11:58:44;;;;;;;5.43;3.10;;;11.50;99.90;;;;;;5091936;28;20565;-68
2022/10/04 12:01:39;;;;;;;4.57;3.17;;;11.60;99.90;;;;;;5092531;28;20610;-68
2022/10/04 12:04:46;;;;;;;4.17;2.87;;;11.60;99.90;;;;;;5092057;28;20653;-68
2022/10/04 12:07:30;;;;;;;4.30;3.00;;;11.60;99.90;;;;;;5091970;28;20629;-68
2022/10/04 12:10:12;;;;;;;7.43;2.77;;;11.60;99.90;;;;;;5091219;28;20322;-69
2022/10/04 12:13:13;;;;;;;5.07;3.00;;;11.70;99.90;;;;;;5092252;28;20247;-69
2022/10/04 12:16:28;;;;;;;5.40;2.80;;;11.80;99.90;;;;;;5065851;28;20516;-68
2022/10/04 12:19:30;;;;;;;4.27;2.87;;;11.80;99.90;;;;;;5082533;28;20716;-68
2022/10/04 12:22:11;;;;;;;3.17;2.60;;;11.80;99.90;;;;;;5049294;28;20207;-68
2022/10/04 12:25:08;;;;;;;4.70;3.00;;;11.90;99.90;;;;;;5088257;28;20559;-68
2022/10/04 12:28:11;;;;;;;4.53;2.73;;;12.00;99.90;;;;;;5091778;28;20288;-68
2022/10/04 12:31:08;;;;;;;3.90;3.10;;;12.10;99.90;;;;;;5034246;28;20233;-68
2022/10/04 12:33:43;;;;;;;4.60;2.90;;;12.10;99.90;;;;;;5084351;28;20207;-71
2022/10/04 12:36:30;;;;;;;3.07;2.53;;;12.10;99.90;;;;;;5095411;28;20188;-70
2022/10/04 12:39:15;;;;;;;3.30;2.80;;;12.10;99.90;;;;;;5074660;28;20595;-68
2022/10/04 12:41:53;;;;;;;6.03;3.00;;;12.10;99.90;;;;;;5082428;28;20188;-68
2022/10/04 12:44:31;;;;;;;7.27;3.17;;;12.10;99.90;;;;;;5095039;28;20287;-68
2022/10/04 12:47:26;;;;;;;3.60;2.80;;;12.00;99.90;;;;;;5094950;28;20191;-68
2022/10/04 12:50:00;;;;;;;4.63;3.07;;;12.10;99.90;;;;;;5094892;28;20501;-67
2022/10/04 12:52:32;;;;;;;6.20;3.50;;;12.00;99.90;;;;;;5090603;28;20185;-67
2022/10/04 12:55:14;;;;;;;4.90;3.43;;;12.10;99.90;;;;;;5093045;28;20208;-68
2022/10/04 12:57:47;;;;;;;4.57;3.30;;;12.10;99.90;;;;;;5092024;28;20560;-68
2022/10/04 13:00:18;;;;;;;4.43;3.23;;;12.10;99.90;;;;;;5087888;28;20189;-68
2022/10/04 13:03:17;;;;;;;4.20;2.97;;;12.10;99.90;;;;;;5085398;28;20199;-68
2022/10/04 13:06:01;;;;;;;5.67;3.50;;;12.00;99.90;;;;;;5089667;28;20196;-69
2022/10/04 13:08:42;;;;;;;5.27;3.50;;;11.90;99.90;;;;;;5084999;28;20249;-68
2022/10/04 13:11:29;;;;;;;4.80;3.40;;;11.90;99.90;;;;;;5094128;28;20211;-67
2022/10/04 13:14:31;;;;;;;4.60;2.90;;;11.80;99.90;;;;;;5074210;28;20518;-68
2022/10/04 13:17:10;;;;;;;3.60;2.50;;;11.80;99.90;;;;;;5054647;28;20208;-69
2022/10/04 13:19:51;;;;;;;3.87;2.30;;;11.70;99.90;;;;;;5074013;28;20215;-68
2022/10/04 13:22:30;;;;;;;3.93;2.43;;;11.60;99.90;;;;;;5074359;28;20185;-68
2022/10/04 13:25:10;;;;;;;3.20;2.50;;;11.60;99.90;;;;;;5086946;28;20695;-68
2022/10/04 13:27:46;;;;;;;3.87;2.30;;;11.50;99.90;;;;;;5093599;28;20188;-68
2022/10/04 13:30:22;;;;;;;2.93;2.40;;;11.50;99.90;;;;;;5094245;28;20621;-68
2022/10/04 13:32:57;;;;;;;2.50;2.30;;;11.40;99.90;;;;;;5093690;28;20184;-68
2022/10/04 13:35:30;;;;;;;2.80;2.20;;;11.40;99.90;;;;;;5094096;28;20194;-69
2022/10/04 13:38:23;;;;;;;3.27;2.50;;;11.40;99.90;;;;;;5093904;28;20613;-68
2022/10/04 13:41:07;;;;;;;3.53;2.47;;;11.30;99.90;;;;;;5093847;28;20641;-69
2022/10/04 13:43:48;;;;;;;4.67;2.30;;;11.30;99.90;;;;;;5093855;28;20188;-68
2022/10/04 13:46:31;;;;;;;3.43;2.37;;;11.30;99.90;;;;;;5093434;28;20199;-68
2022/10/04 13:49:07;;;;;;;3.47;2.03;;;11.20;99.90;;;;;;5093893;28;20192;-68
2022/10/04 13:56:35;;;;;;;3.93;2.07;;;11.10;99.90;;;;;;5086620;28;20195;-70
2022/10/04 13:57:45;;;;;;;3.30;2.30;;;11.00;99.90;;;;;;5090369;28;20207;-67
2022/10/04 14:00:19;;;;;;;3.90;2.23;;;11.00;99.90;;;;;;5090289;28;20219;-68
2022/10/04 14:03:21;;;;;;;2.93;2.20;;;10.90;99.90;;;;;;5093270;28;20200;-69
2022/10/04 14:06:36;;;;;;;3.90;2.27;;;10.80;99.90;;;;;;5093437;28;20191;-68
2022/10/04 14:09:44;;;;;;;3.23;2.20;;;10.80;99.90;;;;;;5093426;28;20228;-67
2022/10/04 14:12:37;;;;;;;4.10;2.57;;;10.70;99.90;;;;;;5043774;28;20574;-68
2022/10/04 14:15:24;;;;;;;3.30;2.37;;;10.70;99.90;;;;;;5093553;28;20648;-68